.
WxDataArchive / Data Records for 2012-10-26
2012-10-25 October 2012 2012-10-27

Data Records for Friday, 26 October 2012

Time	Temp	Chill	HIndex	Humid	Dewpt	 Wind 	HiWind	WindDir	Rain 	Barom 
-----	----	-----	------	-----	-----	------	------	-------	-----	----- 
00:00	67.3	67.3	67.3	62	53.8	1	2	45	0.00	29.847 
00:05	67.1	67.1	67.1	63	54.1	0	2	0	0.00	29.847 
00:10	66.9	66.9	66.9	63	53.9	1	3	0	0.00	29.847 
00:15	66.9	66.9	66.9	63	53.9	1	3	248	0.00	29.844 
00:20	66.9	66.9	66.9	63	53.9	1	3	248	0.00	29.844 
00:25	66.9	66.9	66.9	63	53.9	1	2	248	0.00	29.844 
00:30	66.9	66.9	66.9	63	53.9	0	3	68	0.00	29.841 
00:35	66.8	66.8	66.8	63	53.8	1	5	270	0.00	29.841 
00:40	66.6	66.6	66.6	64	54.0	1	3	45	0.00	29.841 
00:45	66.6	66.6	66.6	64	54.0	1	4	270	0.00	29.846 
00:50	66.6	66.6	66.6	64	54.0	1	4	248	0.00	29.846 
00:55	66.6	66.6	66.6	64	54.0	1	7	248	0.00	29.846 
01:00	66.8	66.8	66.8	64	54.2	1	4	248	0.00	29.867 
01:05	66.6	66.6	66.6	64	54.0	1	3	248	0.00	29.867 
01:10	66.6	66.6	66.6	66	54.9	3	6	248	0.00	29.867 
01:15	66.6	66.6	66.6	69	56.1	2	4	248	0.00	29.877 
01:20	66.3	66.3	66.3	70	56.2	2	4	248	0.00	29.877 
01:25	66.0	66.0	66.0	71	56.3	2	6	248	0.00	29.877 
01:30	65.5	65.5	65.5	72	56.2	2	5	270	0.00	29.884 
01:35	65.2	65.2	65.2	73	56.3	2	4	270	0.00	29.884 
01:40	64.5	64.5	64.5	74	56.0	2	5	270	0.00	29.884 
01:45	63.9	63.9	63.9	74	55.4	2	4	292	0.00	29.894 
01:50	63.2	63.2	63.2	76	55.5	2	5	292	0.00	29.894 
01:55	62.6	62.6	62.6	77	55.3	3	6	315	0.00	29.894 
02:00	61.3	61.3	61.3	77	54.0	4	9	315	0.00	29.914 
02:05	60.5	60.5	60.5	78	53.6	3	7	315	0.00	29.914 
02:10	59.5	59.5	59.5	78	52.6	4	8	315	0.00	29.914 
02:15	58.0	58.0	58.0	79	51.5	3	10	338	0.00	29.928 
02:20	57.2	57.2	57.2	81	51.4	3	7	315	0.00	29.928 
02:25	56.6	56.6	56.6	82	51.2	3	6	315	0.00	29.928 
02:30	56.2	56.2	56.2	82	50.8	3	7	292	0.00	29.937 
02:35	55.7	55.7	55.7	83	50.6	3	7	292	0.00	29.937 
02:40	55.4	55.4	55.4	83	50.3	2	7	270	0.00	29.937 
02:45	55.1	55.1	55.1	82	49.7	2	4	315	0.00	29.959 
02:50	54.7	54.7	54.7	82	49.3	2	5	270	0.00	29.959 
02:55	54.4	54.4	54.4	82	49.0	2	7	338	0.00	29.959 
03:00	54.1	54.1	54.1	81	48.4	4	10	315	0.00	29.979 
03:05	53.3	53.3	53.3	81	47.6	4	8	338	0.00	29.979 
03:10	52.6	52.6	52.6	79	46.3	3	11	315	0.00	29.979 
03:15	52.2	52.2	52.2	80	46.2	4	9	315	0.00	29.986 
03:20	51.6	51.6	51.6	81	46.0	2	7	315	0.00	29.986 
03:25	51.1	51.1	51.1	82	45.8	3	6	315	0.00	29.986 
03:30	50.7	50.7	50.7	83	45.7	2	5	315	0.00	29.996 
03:35	50.4	50.4	50.4	84	45.7	2	6	315	0.00	29.996 
03:40	50.4	50.4	50.4	84	45.7	1	3	315	0.00	29.996 
03:45	50.2	50.2	50.2	84	45.6	1	4	315	0.00	30.002 
03:50	50.2	50.2	50.2	84	45.6	0	2	292	0.00	30.002 
03:55	50.1	50.1	50.1	83	45.1	1	4	338	0.00	30.002 
04:00	50.1	50.1	50.1	83	45.1	2	5	270	0.00	30.016 
04:05	49.9	49.9	49.9	82	44.6	2	5	315	0.00	30.016 
04:10	49.8	49.8	49.8	83	44.8	2	5	315	0.00	30.016 
04:15	49.8	49.8	49.8	83	44.8	2	5	338	0.00	30.024 
04:20	49.4	49.4	49.4	83	44.5	3	7	338	0.00	30.024 
04:25	49.2	49.2	49.2	81	43.6	3	5	292	0.00	30.024 
04:30	48.9	48.9	48.9	80	43.0	3	10	315	0.00	30.024 
04:35	48.6	48.6	48.6	81	43.0	2	6	292	0.00	30.024 
04:40	48.0	48.0	48.0	83	43.1	3	7	315	0.00	30.024 
04:45	47.7	47.7	47.7	85	43.4	2	4	315	0.00	30.033 
04:50	47.3	47.3	47.3	86	43.3	3	6	292	0.00	30.033 
04:55	47.1	47.1	47.1	87	43.4	2	4	315	0.00	30.033 
05:00	46.8	46.8	46.8	88	43.4	2	4	315	0.00	30.039 
05:05	46.7	46.7	46.7	89	43.6	1	4	292	0.00	30.039 
05:10	46.5	46.5	46.5	90	43.7	1	4	315	0.00	30.039 
05:15	46.4	46.4	46.4	90	43.6	2	4	315	0.01	30.052 
05:20	46.2	46.2	46.2	90	43.4	1	3	292	0.00	30.052 
05:25	46.2	46.2	46.2	91	43.7	0	2	292	0.00	30.052 
05:30	46.2	46.2	46.2	91	43.7	1	5	292	0.00	30.054 
05:35	46.1	46.1	46.1	91	43.6	1	4	338	0.00	30.054 
05:40	46.1	46.1	46.1	91	43.6	1	4	292	0.00	30.054 
05:45	46.0	46.0	46.0	91	43.5	2	5	315	0.00	30.053 
05:50	46.0	46.0	46.0	91	43.5	1	4	270	0.00	30.053 
05:55	46.0	46.0	46.0	91	43.5	2	5	270	0.00	30.053 
06:00	45.8	45.8	45.8	91	43.3	1	4	338	0.00	30.066 
06:05	45.8	45.8	45.8	91	43.3	1	3	315	0.00	30.066 
06:10	45.8	45.8	45.8	91	43.3	1	5	270	0.00	30.066 
06:15	45.8	45.8	45.8	91	43.3	1	4	270	0.00	30.078 
06:20	45.8	45.8	45.8	90	43.0	2	6	315	0.00	30.078 
06:25	45.8	45.8	45.8	90	43.0	1	4	292	0.00	30.078 
06:30	45.7	45.7	45.7	90	42.9	2	5	292	0.00	30.076 
06:35	45.7	45.7	45.7	89	42.6	2	6	315	0.00	30.076 
06:40	45.7	45.7	45.7	89	42.6	1	4	292	0.00	30.076 
06:45	45.7	45.7	45.7	89	42.6	2	5	292	0.00	30.102 
06:50	45.7	45.7	45.7	88	42.4	2	4	315	0.00	30.102 
06:55	45.7	45.7	45.7	87	42.1	2	7	292	0.00	30.102 
07:00	45.8	45.8	45.8	87	42.2	1	3	315	0.00	30.118 
07:05	45.7	45.7	45.7	87	42.1	1	5	292	0.00	30.118 
07:10	45.7	45.7	45.7	87	42.1	1	4	315	0.00	30.118 
07:15	45.7	45.7	45.7	87	42.1	1	4	315	0.00	30.130 
07:20	45.5	45.5	45.5	87	41.9	2	5	315	0.00	30.130 
07:25	45.4	45.4	45.4	87	41.8	2	9	292	0.00	30.130 
07:30	45.2	45.2	45.2	86	41.3	3	7	270	0.00	30.136 
07:35	45.1	45.1	45.1	86	41.2	2	6	315	0.00	30.136 
07:40	44.9	44.9	44.9	86	41.0	3	7	338	0.00	30.136 
07:45	44.9	44.9	44.9	86	41.0	2	4	315	0.00	30.136 
07:50	44.8	44.8	44.8	85	40.6	3	7	292	0.00	30.136 
07:55	44.8	44.8	44.8	84	40.3	1	6	292	0.00	30.136 
08:00	44.6	44.6	44.6	84	40.1	1	4	338	0.00	30.122 
08:05	44.6	44.6	44.6	84	40.1	1	7	315	0.00	30.122 
08:10	44.5	44.5	44.5	83	39.7	1	4	292	0.00	30.122 
08:15	44.5	44.5	44.5	83	39.7	1	4	0	0.00	30.123 
08:20	44.3	44.3	44.3	82	39.2	1	5	292	0.00	30.123 
08:25	44.3	44.3	44.3	82	39.2	1	4	315	0.00	30.123 
08:30	44.3	44.3	44.3	82	39.2	1	4	338	0.00	30.108 
08:35	44.3	44.3	44.3	82	39.2	1	3	0	0.00	30.108 
08:40	44.3	44.3	44.3	82	39.2	1	4	292	0.00	30.108 
08:45	44.3	44.3	44.3	82	39.2	1	5	0	0.00	30.141 
08:50	44.3	44.3	44.3	82	39.2	1	3	292	0.00	30.141 
08:55	44.3	44.3	44.3	82	39.2	0	1	0	0.00	30.141 
09:00	44.3	44.3	44.3	82	39.2	1	4	292	0.00	30.167 
09:05	44.3	44.3	44.3	82	39.2	1	3	315	0.01	30.167 
09:10	44.2	44.2	44.2	82	39.1	0	2	315	0.00	30.167 
09:15	44.1	44.1	44.1	82	39.0	1	4	315	0.00	30.172 
09:20	44.1	44.1	44.1	81	38.6	2	5	0	0.00	30.172 
09:25	44.1	44.1	44.1	81	38.6	1	4	292	0.00	30.172 
09:30	44.1	44.1	44.1	81	38.6	0	2	292	0.00	30.186 
09:35	44.2	44.2	44.2	81	38.7	0	2	292	0.00	30.186 
09:40	44.2	44.2	44.2	81	38.7	0	1	292	0.00	30.186 
09:45	44.3	44.3	44.3	81	38.8	0	3	292	0.00	30.192 
09:50	44.3	44.3	44.3	81	38.8	1	3	292	0.00	30.192 
09:55	44.5	44.5	44.5	81	39.0	0	2	292	0.00	30.192 
10:00	44.6	44.6	44.6	81	39.1	1	2	292	0.00	30.193 
10:05	44.6	44.6	44.6	81	39.1	0	2	315	0.00	30.193 
10:10	44.8	44.8	44.8	80	39.0	1	3	338	0.00	30.193 
10:15	44.9	44.9	44.9	80	39.1	0	3	315	0.00	30.197 
10:20	45.1	45.1	45.1	80	39.3	0	3	315	0.00	30.197 
10:25	45.1	45.1	45.1	79	39.0	1	4	338	0.00	30.197 
10:30	45.2	45.2	45.2	78	38.8	2	4	338	0.00	30.200 
10:35	45.2	45.2	45.2	77	38.4	1	3	315	0.00	30.200 
10:40	45.2	45.2	45.2	76	38.1	1	4	338	0.00	30.200 
10:45	45.2	45.2	45.2	74	37.4	2	6	315	0.00	30.203 
10:50	45.2	45.2	45.2	75	37.8	1	3	338	0.00	30.203 
10:55	45.4	45.4	45.4	74	37.6	1	4	338	0.00	30.203 
11:00	45.8	45.8	45.8	74	38.0	1	3	338	0.00	30.205 
11:05	46.2	46.2	46.2	75	38.7	1	4	90	0.00	30.205 
11:10	46.2	46.2	46.2	74	38.4	1	3	338	0.00	30.205 
11:15	46.2	46.2	46.2	74	38.4	1	5	315	0.00	30.213 
11:20	46.1	46.1	46.1	73	37.9	1	4	0	0.00	30.213 
11:25	46.0	46.0	46.0	72	37.5	2	4	270	0.00	30.213 
11:30	46.0	46.0	46.0	72	37.5	1	4	315	0.00	30.215 
11:35	46.1	46.1	46.1	72	37.6	1	5	292	0.00	30.215 
11:40	46.5	46.5	46.5	70	37.3	1	4	338	0.00	30.215 
11:45	47.1	47.1	47.1	68	37.1	1	4	315	0.00	30.214 
11:50	47.0	47.0	47.0	68	37.0	2	4	315	0.00	30.214 
11:55	47.1	47.1	47.1	69	37.5	1	3	315	0.00	30.214 
12:00	47.3	47.3	47.3	68	37.3	1	3	315	0.00	30.214 
12:05	47.3	47.3	47.3	67	36.9	2	5	338	0.00	30.214 
12:10	47.3	47.3	47.3	67	36.9	2	5	338	0.00	30.214 
12:15	47.6	47.6	47.6	67	37.2	2	4	338	0.00	30.208 
12:20	47.6	47.6	47.6	66	36.8	3	6	338	0.00	30.208 
12:25	47.9	47.9	47.9	67	37.5	1	5	270	0.00	30.208 
12:30	48.0	48.0	48.0	67	37.6	1	3	315	0.00	30.215 
12:35	48.3	48.3	48.3	64	36.7	2	6	315	0.00	30.215 
12:40	48.0	48.0	48.0	64	36.4	2	5	338	0.00	30.215 
12:45	47.7	47.7	47.7	65	36.5	2	6	338	0.00	30.219 
12:50	48.2	48.2	48.2	67	37.8	1	5	90	0.00	30.219 
12:55	48.2	48.2	48.2	63	36.2	1	6	0	0.00	30.219 
13:00	48.2	48.2	48.2	64	36.6	2	6	315	0.00	30.216 
13:05	48.3	48.3	48.3	64	36.7	1	5	0	0.00	30.216 
13:10	48.6	48.6	48.6	61	35.8	2	7	315	0.00	30.216 
13:15	48.9	48.9	48.9	60	35.6	2	4	338	0.00	30.225 
13:20	48.9	48.9	48.9	60	35.6	1	3	315	0.00	30.225 
13:25	48.8	48.8	48.8	61	36.0	2	4	338	0.00	30.225 
13:30	48.8	48.8	48.8	62	36.4	2	4	315	0.00	30.222 
13:35	48.5	48.5	48.5	62	36.1	1	3	315	0.00	30.222 
13:40	48.2	48.2	48.2	61	35.4	1	4	0	0.00	30.222 
13:45	48.2	48.2	48.2	62	35.8	1	3	0	0.00	30.218 
13:50	47.9	47.9	47.9	61	35.1	1	4	0	0.00	30.218 
13:55	47.6	47.6	47.6	62	35.2	1	3	0	0.00	30.218 
14:00	47.4	47.4	47.4	62	35.0	1	3	0	0.00	30.206 
14:05	47.4	47.4	47.4	62	35.0	1	3	338	0.00	30.206 
14:10	47.9	47.9	47.9	62	35.5	1	4	338	0.00	30.206 
14:15	48.0	48.0	48.0	62	35.6	2	6	0	0.00	30.211 
14:20	48.3	48.3	48.3	61	35.5	2	4	0	0.00	30.211 
14:25	48.6	48.6	48.6	61	35.8	1	3	338	0.00	30.211 
14:30	48.8	48.8	48.8	59	35.1	1	4	0	0.00	30.210 
14:35	48.6	48.6	48.6	59	34.9	2	5	338	0.00	30.210 
14:40	48.6	48.6	48.6	58	34.5	2	4	315	0.00	30.210 
14:45	48.5	48.5	48.5	58	34.4	1	2	315	0.00	30.223 
14:50	48.3	48.3	48.3	56	33.3	2	6	338	0.00	30.223 
14:55	48.0	48.0	48.0	58	33.9	1	4	338	0.00	30.223 
15:00	48.0	48.0	48.0	57	33.5	1	3	315	0.00	30.223 
15:05	47.9	47.9	47.9	58	33.8	1	3	315	0.00	30.223 
15:10	47.9	47.9	47.9	58	33.8	1	3	22	0.00	30.223 
15:15	47.9	47.9	47.9	59	34.3	0	2	22	0.00	30.212 
15:20	48.0	48.0	48.0	60	34.8	1	3	338	0.00	30.212 
15:25	48.2	48.2	48.2	60	35.0	1	2	0	0.00	30.212 
15:30	48.6	48.6	48.6	59	34.9	1	4	45	0.00	30.206 
15:35	48.6	48.6	48.6	58	34.5	1	4	0	0.00	30.206 
15:40	48.8	48.8	48.8	58	34.7	1	4	338	0.00	30.206 
15:45	48.8	48.8	48.8	58	34.7	2	4	338	0.00	30.198 
15:50	48.6	48.6	48.6	56	33.6	2	6	338	0.00	30.198 
15:55	48.8	48.8	48.8	58	34.7	1	3	90	0.00	30.198 
16:00	48.9	48.9	48.9	55	33.5	2	5	338	0.00	30.197 
16:05	49.2	49.2	49.2	55	33.7	1	4	338	0.00	30.197 
16:10	49.1	49.1	49.1	55	33.6	1	4	338	0.00	30.197 
16:15	49.1	49.1	49.1	54	33.2	1	5	338	0.00	30.198 
16:20	49.2	49.2	49.2	55	33.7	1	3	315	0.00	30.198 
16:25	49.2	49.2	49.2	55	33.7	1	3	338	0.00	30.198 
16:30	49.2	49.2	49.2	55	33.7	1	3	292	0.00	30.197 
16:35	49.2	49.2	49.2	55	33.7	1	3	338	0.00	30.197 
16:40	49.4	49.4	49.4	55	33.9	1	4	338	0.00	30.197 
16:45	49.4	49.4	49.4	55	33.9	1	4	315	0.00	30.196 
16:50	49.4	49.4	49.4	55	33.9	1	4	315	0.00	30.196 
16:55	49.5	49.5	49.5	55	34.0	1	3	0	0.00	30.196 
17:00	49.5	49.5	49.5	54	33.6	0	1	68	0.00	30.188 
17:05	49.5	49.5	49.5	54	33.6	0	4	68	0.00	30.188 
17:10	49.4	49.4	49.4	55	33.9	0	2	0	0.00	30.188 
17:15	49.4	49.4	49.4	55	33.9	1	4	338	0.00	30.184 
17:20	49.2	49.2	49.2	55	33.7	1	4	0	0.00	30.184 
17:25	49.2	49.2	49.2	56	34.2	0	2	0	0.00	30.184 
17:30	49.1	49.1	49.1	54	33.2	0	2	0	0.00	30.184 
17:35	49.1	49.1	49.1	54	33.2	0	2	0	0.00	30.184 
17:40	49.1	49.1	49.1	55	33.6	0	2	0	0.00	30.184 
17:45	49.1	49.1	49.1	55	33.6	0	1	0	0.00	30.190 
17:50	49.1	49.1	49.1	55	33.6	1	3	0	0.00	30.190 
17:55	48.9	48.9	48.9	55	33.5	1	4	292	0.00	30.190 
18:00	48.9	48.9	48.9	55	33.5	0	2	292	0.00	30.194 
18:05	48.8	48.8	48.8	55	33.4	0	2	338	0.00	30.194 
18:10	48.8	48.8	48.8	55	33.4	1	3	338	0.00	30.194 
18:15	48.6	48.6	48.6	54	32.7	1	3	270	0.00	30.202 
18:20	48.5	48.5	48.5	54	32.6	1	3	292	0.00	30.202 
18:25	48.3	48.3	48.3	54	32.4	1	2	315	0.00	30.202 
18:30	48.0	48.0	48.0	54	32.2	0	2	315	0.00	30.204 
18:35	48.0	48.0	48.0	54	32.2	1	2	315	0.00	30.204 
18:40	47.9	47.9	47.9	55	32.5	0	3	315	0.00	30.204 
18:45	47.7	47.7	47.7	56	32.8	0	3	315	0.00	30.204 
18:50	47.6	47.6	47.6	56	32.7	1	2	315	0.00	30.204 
18:55	47.4	47.4	47.4	56	32.5	0	2	315	0.00	30.204 
19:00	47.3	47.3	47.3	57	32.8	0	2	315	0.00	30.204 
19:05	47.3	47.3	47.3	57	32.8	1	3	315	0.00	30.204 
19:10	47.1	47.1	47.1	57	32.7	1	4	338	0.00	30.204 
19:15	47.1	47.1	47.1	57	32.7	1	4	338	0.00	30.205 
19:20	47.0	47.0	47.0	57	32.6	1	4	315	0.00	30.205 
19:25	47.0	47.0	47.0	56	32.1	1	5	270	0.00	30.205 
19:30	46.8	46.8	46.8	56	31.9	0	3	315	0.00	30.208 
19:35	46.8	46.8	46.8	55	31.5	1	4	338	0.00	30.208 
19:40	46.7	46.7	46.7	55	31.4	1	4	338	0.00	30.208 
19:45	46.7	46.7	46.7	55	31.4	1	5	338	0.00	30.202 
19:50	46.5	46.5	46.5	55	31.2	1	5	0	0.00	30.202 
19:55	46.5	46.5	46.5	56	31.7	0	2	0	0.00	30.202 
20:00	46.4	46.4	46.4	56	31.6	0	2	0	0.00	30.217 
20:05	46.2	46.2	46.2	56	31.4	0	4	315	0.00	30.217 
20:10	46.2	46.2	46.2	56	31.4	1	3	338	0.00	30.217 
20:15	46.2	46.2	46.2	57	31.8	0	2	338	0.00	30.220 
20:20	46.1	46.1	46.1	57	31.7	1	3	338	0.00	30.220 
20:25	46.0	46.0	46.0	58	32.1	0	2	338	0.00	30.220 
20:30	45.8	45.8	45.8	58	31.9	0	2	338	0.00	30.220 
20:35	45.7	45.7	45.7	59	32.2	0	3	338	0.00	30.220 
20:40	45.5	45.5	45.5	59	32.0	0	1	338	0.00	30.220 
20:45	45.4	45.4	45.4	60	32.3	0	2	338	0.00	30.223 
20:50	45.2	45.2	45.2	60	32.1	0	1	338	0.00	30.223 
20:55	45.1	45.1	45.1	61	32.5	0	1	338	0.00	30.223 
21:00	44.9	44.9	44.9	61	32.3	0	1	338	0.00	30.223 
21:05	44.6	44.6	44.6	62	32.4	0	1	338	0.00	30.223 
21:10	44.5	44.5	44.5	62	32.3	0	1	338	0.00	30.223 
21:15	44.3	44.3	44.3	62	32.1	0	1	338	0.00	30.222 
21:20	44.2	44.2	44.2	63	32.4	0	1	338	0.00	30.222 
21:25	43.9	43.9	43.9	63	32.1	0	1	338	0.00	30.222 
21:30	43.8	43.8	43.8	63	32.0	0	1	338	0.00	30.222 
21:35	43.6	43.6	43.6	63	31.8	0	2	338	0.00	30.222 
21:40	43.3	43.3	43.3	64	32.0	0	2	338	0.00	30.222 
21:45	43.3	43.3	43.3	63	31.6	0	2	338	0.00	30.222 
21:50	43.2	43.2	43.2	63	31.5	0	4	0	0.00	30.222 
21:55	43.1	43.1	43.1	64	31.8	0	1	0	0.00	30.222 
22:00	42.9	42.9	42.9	64	31.6	0	1	0	0.00	30.219 
22:05	42.6	42.6	42.6	65	31.7	0	2	0	0.00	30.219 
22:10	42.6	42.6	42.6	65	31.7	0	2	0	0.00	30.219 
22:15	42.6	42.6	42.6	65	31.7	0	2	0	0.00	30.226 
22:20	42.8	42.8	42.8	65	31.9	0	2	0	0.00	30.226 
22:25	42.8	42.8	42.8	65	31.9	0	1	0	0.00	30.226 
22:30	42.9	42.9	42.9	65	32.0	0	1	0	0.00	30.222 
22:35	43.1	43.1	43.1	65	32.1	0	2	0	0.00	30.222 
22:40	43.1	43.1	43.1	65	32.1	0	2	0	0.00	30.222 
22:45	43.2	43.2	43.2	65	32.2	0	1	0	0.00	30.231 
22:50	43.2	43.2	43.2	65	32.2	0	2	0	0.00	30.231 
22:55	43.2	43.2	43.2	65	32.2	0	2	0	0.00	30.231 
23:00	43.3	43.3	43.3	65	32.3	0	2	0	0.00	30.230 
23:05	43.3	43.3	43.3	65	32.3	0	2	0	0.00	30.230 
23:10	43.3	43.3	43.3	65	32.3	0	2	0	0.00	30.230 
23:15	43.5	43.5	43.5	65	32.5	0	2	0	0.00	30.229 
23:20	43.5	43.5	43.5	64	32.1	1	2	315	0.00	30.229 
23:25	43.5	43.5	43.5	64	32.1	0	2	315	0.00	30.229 
23:30	43.6	43.6	43.6	64	32.2	0	1	315	0.00	30.228 
23:35	43.6	43.6	43.6	64	32.2	0	1	315	0.00	30.228 
23:40	43.6	43.6	43.6	64	32.2	0	2	315	0.00	30.228 
23:45	43.6	43.6	43.6	64	32.2	0	2	315	0.00	30.227 
23:50	43.6	43.6	43.6	64	32.2	0	3	315	0.00	30.227 
23:55	43.6	43.6	43.6	64	32.2	1	4	315	0.00	30.227 

CoCoRaHS
IN-AL-39
A2 Web Hosting
Creative Commons License
GoDaddy
search engine by freefind advanced

loaded 2018-11-13 17:38:31 • last modified 2010-11-18 10:43:29
Privacy PolicyDisclaimer
• wx.awcolley.com is powered by PmWiki v.2002016 •
• all content (unless otherwise noted) © 2018 A W Colley